createdAt,value
2023-05-14T00:01:08.588Z,10.80
2023-05-14T00:03:37.628Z,8.32
2023-05-14T00:06:06.031Z,8.68
2023-05-14T00:08:33.809Z,7.70
2023-05-14T00:11:01.532Z,6.35
2023-05-14T00:13:30.672Z,5.85
2023-05-14T00:15:59.765Z,6.93
2023-05-14T00:18:28.069Z,6.15
2023-05-14T00:20:56.301Z,5.65
2023-05-14T00:23:25.210Z,6.17
2023-05-14T00:25:52.958Z,7.57
2023-05-14T00:28:20.750Z,6.53
2023-05-14T00:30:49.660Z,5.15
2023-05-14T00:33:19.176Z,7.38
2023-05-14T00:35:46.937Z,5.82
2023-05-14T00:38:18.099Z,6.65
2023-05-14T00:40:51.144Z,6.15
2023-05-14T00:43:20.126Z,5.90
2023-05-14T00:45:48.827Z,6.70
2023-05-14T00:48:18.355Z,9.67
2023-05-14T00:50:46.629Z,8.15
2023-05-14T00:53:14.509Z,7.53
2023-05-14T00:55:43.403Z,8.27
2023-05-14T00:58:13.015Z,6.28
2023-05-14T01:00:41.095Z,6.70
2023-05-14T01:03:10.330Z,8.00
2023-05-14T01:05:42.922Z,6.78
2023-05-14T01:08:14.329Z,7.05
2023-05-14T01:10:47.021Z,6.38
2023-05-14T01:13:21.275Z,8.18
2023-05-14T01:15:50.859Z,6.57
2023-05-14T01:18:19.705Z,6.13
2023-05-14T01:20:51.465Z,5.38
2023-05-14T01:23:20.998Z,7.20
2023-05-14T01:25:49.173Z,5.00
2023-05-14T01:28:19.151Z,6.15
2023-05-14T01:30:51.005Z,6.28
2023-05-14T01:33:20.535Z,5.85
2023-05-14T01:35:48.460Z,7.35
2023-05-14T01:38:19.103Z,6.60
2023-05-14T01:40:49.209Z,6.63
2023-05-14T01:43:17.218Z,6.35
2023-05-14T01:45:45.596Z,4.90
2023-05-14T01:48:14.093Z,5.93
2023-05-14T01:50:41.899Z,7.00
2023-05-14T01:53:09.645Z,6.80
2023-05-14T01:55:38.287Z,7.28
2023-05-14T01:58:07.428Z,6.15
2023-05-14T02:00:36.144Z,5.88
2023-05-14T02:03:04.441Z,8.13
2023-05-14T02:05:32.301Z,5.65
2023-05-14T02:08:00.055Z,5.63
2023-05-14T02:10:28.810Z,6.97
2023-05-14T02:12:57.161Z,6.25
2023-05-14T02:15:26.339Z,6.63
2023-05-14T02:17:54.650Z,6.20
2023-05-14T02:20:22.710Z,5.20
2023-05-14T02:22:50.571Z,8.40
2023-05-14T02:25:19.656Z,6.53
2023-05-14T02:27:47.872Z,6.40
2023-05-14T02:30:17.248Z,6.15
2023-05-14T02:32:46.833Z,5.20
2023-05-14T02:35:14.708Z,4.55
2023-05-14T02:37:42.900Z,4.97
2023-05-14T02:40:11.108Z,9.30
2023-05-14T02:42:38.841Z,6.93
2023-05-14T02:45:08.197Z,5.28
2023-05-14T02:47:37.979Z,7.70
2023-05-14T02:50:09.182Z,7.50
2023-05-14T02:52:36.904Z,6.03
2023-05-14T02:55:05.586Z,6.85
2023-05-14T02:57:34.368Z,5.38
2023-05-14T03:00:02.116Z,6.22
2023-05-14T03:02:30.713Z,6.88
2023-05-14T03:04:59.583Z,5.97
2023-05-14T03:07:28.664Z,6.75
2023-05-14T03:09:57.182Z,5.57
2023-05-14T03:12:25.378Z,6.65
2023-05-14T03:14:53.160Z,6.10
2023-05-14T03:17:20.877Z,7.18
2023-05-14T03:19:49.573Z,5.43
2023-05-14T03:22:17.339Z,7.85
2023-05-14T03:24:46.874Z,6.72
2023-05-14T03:27:15.235Z,6.80
2023-05-14T03:29:43.036Z,6.45
2023-05-14T03:32:10.760Z,6.13
2023-05-14T03:34:39.461Z,5.93
2023-05-14T03:37:08.034Z,5.33
2023-05-14T03:39:36.253Z,6.25
2023-05-14T03:42:07.569Z,6.32
2023-05-14T03:44:35.762Z,6.88
2023-05-14T03:47:04.723Z,8.27
2023-05-14T03:49:33.830Z,7.10
2023-05-14T03:52:01.605Z,6.32
2023-05-14T03:54:29.811Z,6.18
2023-05-14T03:56:58.009Z,6.38
2023-05-14T03:59:27.218Z,8.27
2023-05-14T04:01:54.980Z,7.23
2023-05-14T04:04:23.680Z,7.60
2023-05-14T04:06:51.439Z,6.43
2023-05-14T04:09:19.634Z,8.07
2023-05-14T04:11:47.883Z,6.53
2023-05-14T04:14:15.712Z,6.35
2023-05-14T04:16:45.925Z,5.65
2023-05-14T04:19:14.076Z,8.40
2023-05-14T04:21:42.937Z,7.10
2023-05-14T04:24:11.151Z,5.82
2023-05-14T04:26:39.322Z,5.93
2023-05-14T04:29:07.103Z,6.05
2023-05-14T04:31:34.873Z,8.02
2023-05-14T04:34:04.511Z,5.95
2023-05-14T04:36:32.389Z,9.15
2023-05-14T04:39:00.584Z,7.88
2023-05-14T04:41:28.784Z,5.15
2023-05-14T04:43:56.970Z,6.63
2023-05-14T04:46:24.740Z,6.05
2023-05-14T04:48:52.983Z,7.28
2023-05-14T04:51:22.056Z,8.38
2023-05-14T04:53:50.705Z,5.65
2023-05-14T04:56:18.384Z,6.90
2023-05-14T04:58:46.522Z,7.53
2023-05-14T05:01:15.404Z,6.68
2023-05-14T05:03:43.305Z,11.03
2023-05-14T05:06:11.029Z,7.72
2023-05-14T05:08:41.962Z,8.20
2023-05-14T05:11:09.698Z,6.93
2023-05-14T05:13:37.427Z,6.80
2023-05-14T05:16:06.443Z,7.97
2023-05-14T05:18:34.282Z,7.90
2023-05-14T05:21:02.627Z,9.63
2023-05-14T05:23:30.869Z,6.53
2023-05-14T05:26:00.087Z,8.77
2023-05-14T05:28:27.836Z,9.38
2023-05-14T05:30:56.596Z,8.15
2023-05-14T05:33:24.354Z,10.00
2023-05-14T05:35:52.561Z,10.07
2023-05-14T05:38:20.831Z,7.72
2023-05-14T05:40:49.011Z,7.78
2023-05-14T05:43:18.061Z,8.30
2023-05-14T05:45:47.039Z,8.57
2023-05-14T05:48:14.728Z,6.97
2023-05-14T05:50:44.814Z,6.95
2023-05-14T05:53:12.761Z,9.10
2023-05-14T05:55:42.155Z,9.02
2023-05-14T05:58:09.902Z,8.00
2023-05-14T06:00:39.104Z,7.88
2023-05-14T06:03:07.286Z,7.38
2023-05-14T06:05:36.206Z,10.05
2023-05-14T06:08:04.389Z,8.18
2023-05-14T06:10:33.166Z,7.47
2023-05-14T06:13:00.894Z,6.60
2023-05-14T06:15:29.033Z,7.45
2023-05-14T06:17:58.556Z,6.60
2023-05-14T06:20:26.521Z,6.30
2023-05-14T06:22:54.944Z,5.97
2023-05-14T06:25:22.956Z,8.05
2023-05-14T06:27:50.689Z,7.38
2023-05-14T06:30:18.962Z,5.10
2023-05-14T06:32:46.774Z,6.90
2023-05-14T06:35:16.889Z,6.10
2023-05-14T06:37:44.613Z,6.05
2023-05-14T06:40:15.639Z,5.72
2023-05-14T06:42:44.545Z,4.72
2023-05-14T06:45:12.649Z,4.65
2023-05-14T06:47:40.590Z,5.47
2023-05-14T06:50:10.817Z,4.95
2023-05-14T06:52:40.443Z,6.18
2023-05-14T06:55:09.373Z,5.93
2023-05-14T06:57:39.914Z,5.28
2023-05-14T07:00:09.375Z,4.20
2023-05-14T07:02:37.587Z,4.63
2023-05-14T07:05:05.485Z,4.25
2023-05-14T07:07:33.145Z,4.72
2023-05-14T07:10:03.291Z,4.53
2023-05-14T07:12:31.111Z,4.47
2023-05-14T07:14:58.774Z,5.70
2023-05-14T07:17:27.591Z,4.35
2023-05-14T07:19:56.032Z,5.18
2023-05-14T07:22:24.238Z,5.07
2023-05-14T07:24:52.904Z,5.13
2023-05-14T07:27:22.332Z,4.82
2023-05-14T07:29:50.696Z,5.22
2023-05-14T07:32:18.397Z,5.07
2023-05-14T07:34:46.661Z,5.40
2023-05-14T07:37:14.848Z,5.13
2023-05-14T07:39:42.723Z,5.05
2023-05-14T07:42:10.426Z,4.25
2023-05-14T07:44:40.943Z,4.00
2023-05-14T07:47:08.946Z,6.63
2023-05-14T07:49:37.208Z,4.28
2023-05-14T07:52:05.577Z,5.45
2023-05-14T07:54:33.369Z,4.93
2023-05-14T07:57:01.093Z,5.55
2023-05-14T07:59:29.740Z,4.18
2023-05-14T08:01:58.858Z,5.32
2023-05-14T08:04:26.818Z,4.47
2023-05-14T08:06:55.957Z,5.25
2023-05-14T08:09:23.748Z,4.40
2023-05-14T08:11:51.501Z,4.43
2023-05-14T08:14:21.834Z,4.90
2023-05-14T08:19:20.924Z,5.57
2023-05-14T08:24:16.605Z,3.78
2023-05-14T08:26:44.361Z,4.00
2023-05-14T08:29:14.001Z,4.18
2023-05-14T08:31:44.170Z,3.90
2023-05-14T08:34:12.348Z,4.68
2023-05-14T08:36:41.498Z,4.80
2023-05-14T08:39:09.849Z,4.28
2023-05-14T08:41:39.064Z,3.40
2023-05-14T08:44:09.906Z,4.00
2023-05-14T08:46:39.754Z,3.00
2023-05-14T08:49:12.441Z,3.50
2023-05-14T08:51:42.487Z,4.38
2023-05-14T08:54:14.588Z,3.53
2023-05-14T08:56:43.883Z,3.42
2023-05-14T08:59:11.637Z,3.33
2023-05-14T09:01:39.664Z,3.55
2023-05-14T09:04:08.743Z,3.97
2023-05-14T09:06:37.591Z,3.50
2023-05-14T09:09:06.987Z,2.80
2023-05-14T09:11:41.878Z,3.08
2023-05-14T09:14:10.153Z,3.92
2023-05-14T09:16:38.030Z,4.60
2023-05-14T09:19:06.760Z,3.28
2023-05-14T09:21:34.588Z,2.88
2023-05-14T09:24:02.792Z,3.83
2023-05-14T09:26:33.000Z,3.00
2023-05-14T09:29:02.032Z,2.00
2023-05-14T09:31:31.034Z,2.22
2023-05-14T09:33:59.223Z,3.08
2023-05-14T09:36:28.103Z,2.80
2023-05-14T09:38:58.023Z,3.67
2023-05-14T09:41:25.898Z,2.55
2023-05-14T09:43:56.887Z,4.07
2023-05-14T09:46:30.555Z,2.80
2023-05-14T09:48:58.910Z,4.43
2023-05-14T09:51:26.800Z,2.60
2023-05-14T09:53:56.230Z,2.70
2023-05-14T09:56:26.289Z,2.25
2023-05-14T09:58:55.727Z,2.17
2023-05-14T10:01:25.051Z,2.53
2023-05-14T10:03:53.906Z,3.10
2023-05-14T10:06:23.894Z,2.42
2023-05-14T10:08:55.582Z,2.83
2023-05-14T10:11:26.280Z,2.22
2023-05-14T10:14:03.293Z,2.30
2023-05-14T10:16:34.495Z,3.50
2023-05-14T10:19:03.939Z,2.83
2023-05-14T10:21:33.270Z,2.40
2023-05-14T10:24:01.123Z,2.10
2023-05-14T10:26:29.571Z,3.65
2023-05-14T10:28:59.649Z,2.30
2023-05-14T10:31:42.356Z,2.22
2023-05-14T10:34:30.694Z,2.58
2023-05-14T10:37:00.104Z,2.83
2023-05-14T10:39:42.133Z,2.55
2023-05-14T10:42:10.231Z,2.10
2023-05-14T10:44:41.991Z,2.00
2023-05-14T10:47:11.079Z,2.08
2023-05-14T10:49:43.375Z,1.95
2023-05-14T10:52:12.235Z,2.33
2023-05-14T10:54:40.316Z,2.95
2023-05-14T10:57:12.243Z,2.33
2023-05-14T10:59:44.267Z,2.28
2023-05-14T11:02:24.085Z,1.70
2023-05-14T11:04:53.696Z,1.42
2023-05-14T11:07:25.204Z,2.03
2023-05-14T11:09:54.873Z,2.33
2023-05-14T11:12:22.753Z,3.22
2023-05-14T11:14:52.391Z,2.47
2023-05-14T11:17:20.935Z,2.47
2023-05-14T11:19:51.046Z,1.92
2023-05-14T11:22:19.405Z,4.00
2023-05-14T11:24:47.134Z,1.88
2023-05-14T11:27:14.854Z,1.98
2023-05-14T11:29:45.232Z,2.03
2023-05-14T11:32:14.760Z,1.77
2023-05-14T11:34:44.815Z,2.13
2023-05-14T11:39:47.345Z,3.27
2023-05-14T11:42:17.429Z,2.20
2023-05-14T11:44:45.903Z,1.70
2023-05-14T11:47:14.992Z,1.63
2023-05-14T11:49:43.254Z,2.78
2023-05-14T11:52:11.719Z,1.63
2023-05-14T11:54:40.325Z,3.22
2023-05-14T11:57:09.958Z,1.98
2023-05-14T12:02:06.217Z,2.42
2023-05-14T12:04:35.894Z,1.88
2023-05-14T12:07:09.002Z,2.03
2023-05-14T12:09:37.814Z,3.08
2023-05-14T12:12:09.218Z,2.05
2023-05-14T12:14:39.318Z,2.70
2023-05-14T12:17:12.441Z,2.20
2023-05-14T12:19:43.065Z,1.45
2023-05-14T12:22:11.268Z,1.55
2023-05-14T12:24:40.323Z,2.90
2023-05-14T12:27:09.267Z,2.40
2023-05-14T12:29:38.068Z,1.52
2023-05-14T12:32:09.689Z,1.50
2023-05-14T12:34:39.048Z,1.63
2023-05-14T12:37:08.423Z,2.95
2023-05-14T12:39:37.941Z,3.70
2023-05-14T12:42:06.047Z,3.22
2023-05-14T12:44:33.766Z,2.65
2023-05-14T12:47:02.205Z,1.48
2023-05-14T12:49:30.366Z,2.03
2023-05-14T12:52:13.193Z,1.92
2023-05-14T12:54:48.710Z,2.25
2023-05-14T12:57:16.546Z,2.85
2023-05-14T12:59:44.320Z,3.22
2023-05-14T13:02:12.164Z,2.35
2023-05-14T13:04:41.602Z,1.98
2023-05-14T13:07:09.736Z,1.98
2023-05-14T13:09:38.944Z,1.73
2023-05-14T13:12:09.555Z,2.20
2023-05-14T13:14:37.517Z,1.63
2023-05-14T13:17:06.050Z,2.03
2023-05-14T13:19:35.041Z,2.13
2023-05-14T13:22:02.880Z,1.95
2023-05-14T13:24:31.353Z,3.95
2023-05-14T13:26:59.975Z,2.58
2023-05-14T13:29:31.701Z,2.30
2023-05-14T13:31:59.715Z,2.67
2023-05-14T13:34:28.028Z,1.65
2023-05-14T13:36:56.126Z,2.35
2023-05-14T13:39:27.346Z,2.72
2023-05-14T13:41:57.259Z,2.05
2023-05-14T13:44:25.581Z,1.90
2023-05-14T13:46:55.082Z,1.77
2023-05-14T13:49:23.526Z,2.85
2023-05-14T13:51:51.560Z,2.15
2023-05-14T13:54:19.495Z,1.95
2023-05-14T13:56:47.264Z,1.55
2023-05-14T13:59:15.188Z,3.00
2023-05-14T14:01:44.279Z,1.60
2023-05-14T14:04:16.113Z,1.60
2023-05-14T14:06:43.860Z,1.83
2023-05-14T14:09:13.455Z,2.38
2023-05-14T14:11:41.673Z,1.48
2023-05-14T14:14:09.515Z,3.60
2023-05-14T14:16:38.338Z,3.58
2023-05-14T14:19:06.509Z,2.42
2023-05-14T14:21:36.364Z,1.30
2023-05-14T14:24:05.557Z,2.20
2023-05-14T14:26:33.254Z,1.35
2023-05-14T14:29:01.475Z,1.55
2023-05-14T14:31:29.694Z,1.10
2023-05-14T14:33:57.752Z,2.15
2023-05-14T14:36:25.522Z,2.58
2023-05-14T14:38:56.684Z,1.15
2023-05-14T14:41:24.567Z,2.83
2023-05-14T14:43:52.464Z,1.45
2023-05-14T14:46:21.140Z,2.72
2023-05-14T14:48:48.878Z,2.13
2023-05-14T14:51:18.630Z,1.83
2023-05-14T14:53:47.861Z,1.67
2023-05-14T14:58:45.427Z,1.88
2023-05-14T15:01:14.220Z,1.63
2023-05-14T15:03:42.696Z,1.92
2023-05-14T15:06:10.948Z,2.67
2023-05-14T15:08:39.078Z,2.35
2023-05-14T15:11:07.453Z,3.10
2023-05-14T15:13:35.235Z,2.22
2023-05-14T15:16:05.334Z,2.03
2023-05-14T15:18:33.110Z,1.80
2023-05-14T15:21:01.301Z,2.38
2023-05-14T15:23:29.923Z,2.15
2023-05-14T15:25:57.703Z,3.17
2023-05-14T15:28:25.397Z,3.15
2023-05-14T15:30:54.062Z,2.15
2023-05-14T15:33:23.635Z,2.38
2023-05-14T15:38:19.063Z,2.65
2023-05-14T15:40:47.347Z,2.45
2023-05-14T15:43:15.667Z,2.75
2023-05-14T15:45:45.223Z,3.17
2023-05-14T15:48:13.110Z,2.97
2023-05-14T15:50:42.712Z,2.63
2023-05-14T15:53:10.479Z,2.20
2023-05-14T15:55:38.806Z,2.97
2023-05-14T15:58:06.569Z,2.90
2023-05-14T16:00:34.305Z,3.50
2023-05-14T16:03:02.953Z,2.53
2023-05-14T16:05:30.764Z,6.30
2023-05-14T16:08:00.484Z,2.78
2023-05-14T16:10:29.280Z,2.10
2023-05-14T16:12:57.025Z,2.10
2023-05-14T16:15:24.798Z,3.75
2023-05-14T16:17:53.099Z,3.40
2023-05-14T16:20:21.477Z,2.30
2023-05-14T16:22:49.375Z,4.22
2023-05-14T16:25:19.911Z,3.55
2023-05-14T16:27:47.754Z,2.30
2023-05-14T16:30:15.621Z,3.45
2023-05-14T16:32:47.006Z,4.50
2023-05-14T16:35:14.884Z,4.18
2023-05-14T16:37:42.659Z,2.25
2023-05-14T16:40:12.252Z,2.55
2023-05-14T16:42:41.529Z,2.97
2023-05-14T16:45:09.976Z,2.97
2023-05-14T16:47:38.191Z,2.50
2023-05-14T16:50:06.422Z,2.97
2023-05-14T16:52:34.289Z,3.72
2023-05-14T16:55:03.001Z,2.70
2023-05-14T16:57:30.713Z,2.38
2023-05-14T17:00:00.564Z,3.15
2023-05-14T17:02:28.467Z,4.47
2023-05-14T17:04:56.430Z,4.32
2023-05-14T17:07:24.640Z,3.67
2023-05-14T17:09:53.359Z,5.07
2023-05-14T17:12:21.068Z,2.78
2023-05-14T17:14:49.352Z,3.35
2023-05-14T17:17:18.699Z,6.20
2023-05-14T17:19:46.889Z,3.65
2023-05-14T17:22:14.668Z,3.53
2023-05-14T17:24:42.449Z,3.35
2023-05-14T17:27:10.634Z,3.00
2023-05-14T17:29:38.348Z,3.80
2023-05-14T17:32:06.459Z,5.10
2023-05-14T17:34:36.542Z,4.50
2023-05-14T17:39:32.298Z,3.33
2023-05-14T17:42:00.469Z,28.40
2023-05-14T17:44:28.250Z,4.78
2023-05-14T17:46:59.850Z,4.05
2023-05-14T17:49:27.719Z,4.20
2023-05-14T17:51:56.778Z,4.13
2023-05-14T17:54:25.039Z,3.10
2023-05-14T17:56:52.783Z,4.20
2023-05-14T17:59:22.984Z,3.97
2023-05-14T18:01:52.908Z,3.30
2023-05-14T18:04:20.652Z,3.83
2023-05-14T18:06:48.755Z,3.05
2023-05-14T18:09:17.922Z,3.20
2023-05-14T18:11:46.640Z,6.13
2023-05-14T18:14:14.806Z,3.40
2023-05-14T18:16:42.640Z,2.97
2023-05-14T18:19:11.361Z,4.40
2023-05-14T18:21:40.360Z,5.45
2023-05-14T18:24:08.484Z,4.13
2023-05-14T18:26:40.711Z,4.82
2023-05-14T18:29:10.075Z,5.75
2023-05-14T18:31:37.792Z,6.63
2023-05-14T18:34:06.223Z,6.07
2023-05-14T18:36:33.999Z,3.40
2023-05-14T18:39:02.659Z,10.23
2023-05-14T18:41:30.695Z,4.47
2023-05-14T18:43:59.842Z,7.07
2023-05-14T18:46:31.217Z,5.50
2023-05-14T18:49:00.071Z,8.27
2023-05-14T18:51:27.829Z,8.85
2023-05-14T18:53:55.664Z,6.13
2023-05-14T18:56:23.858Z,4.65
2023-05-14T18:58:53.222Z,4.90
2023-05-14T19:01:25.954Z,4.90
2023-05-14T19:03:54.181Z,6.32
2023-05-14T19:06:22.105Z,6.63
2023-05-14T19:08:50.383Z,6.30
2023-05-14T19:11:18.566Z,6.15
2023-05-14T19:13:47.902Z,5.85
2023-05-14T19:16:15.753Z,4.00
2023-05-14T19:18:46.163Z,4.78
2023-05-14T19:21:14.866Z,9.48
2023-05-14T19:23:42.651Z,4.70
2023-05-14T19:26:11.012Z,4.57
2023-05-14T19:28:39.017Z,5.78
2023-05-14T19:31:06.872Z,6.75
2023-05-14T19:33:36.402Z,6.30
2023-05-14T19:36:05.961Z,7.95
2023-05-14T19:38:34.026Z,6.60
2023-05-14T19:41:02.264Z,6.22
2023-05-14T19:43:30.539Z,9.27
2023-05-14T19:45:59.987Z,6.80
2023-05-14T19:48:31.255Z,7.97
2023-05-14T19:50:59.007Z,6.53
2023-05-14T19:53:30.573Z,6.07
2023-05-14T19:55:58.825Z,5.80
2023-05-14T19:58:26.991Z,5.13
2023-05-14T20:00:57.763Z,5.82
2023-05-14T20:03:27.857Z,5.50
2023-05-14T20:05:56.309Z,4.80
2023-05-14T20:08:25.496Z,4.55
2023-05-14T20:10:54.702Z,6.18
2023-05-14T20:13:24.996Z,5.88
2023-05-14T20:15:55.528Z,5.68
2023-05-14T20:18:23.355Z,6.03
2023-05-14T20:20:51.078Z,6.40
2023-05-14T20:23:20.857Z,6.53
2023-05-14T20:25:48.746Z,7.63
2023-05-14T20:28:18.016Z,6.25
2023-05-14T20:30:46.367Z,5.60
2023-05-14T20:33:15.590Z,7.15
2023-05-14T20:35:44.202Z,7.18
2023-05-14T20:38:12.767Z,6.45
2023-05-14T20:40:41.916Z,5.80
2023-05-14T20:43:09.654Z,5.70
2023-05-14T20:45:39.172Z,6.07
2023-05-14T20:48:10.224Z,6.95
2023-05-14T20:50:38.092Z,5.97
2023-05-14T20:53:05.877Z,6.07
2023-05-14T20:55:35.198Z,7.38
2023-05-14T20:58:03.406Z,6.88
2023-05-14T21:00:31.210Z,7.07
2023-05-14T21:03:00.713Z,7.70
2023-05-14T21:05:29.659Z,8.25
2023-05-14T21:07:57.432Z,7.88
2023-05-14T21:10:25.617Z,7.30
2023-05-14T21:12:54.095Z,7.97
2023-05-14T21:15:21.945Z,7.90
2023-05-14T21:17:49.764Z,6.85
2023-05-14T21:20:19.975Z,9.23
2023-05-14T21:22:47.714Z,6.78
2023-05-14T21:25:16.012Z,7.10
2023-05-14T21:27:44.201Z,6.53
2023-05-14T21:30:12.640Z,7.20
2023-05-14T21:32:40.889Z,7.25
2023-05-14T21:35:09.100Z,6.95
2023-05-14T21:37:39.724Z,6.55
2023-05-14T21:40:12.715Z,7.05
2023-05-14T21:42:40.811Z,7.00
2023-05-14T21:45:08.918Z,7.07
2023-05-14T21:47:37.758Z,7.20
2023-05-14T21:50:06.097Z,6.90
2023-05-14T21:52:34.604Z,7.35
2023-05-14T21:55:04.183Z,7.60
2023-05-14T21:57:34.308Z,7.88
2023-05-14T22:00:04.315Z,7.55
2023-05-14T22:02:32.398Z,7.88
2023-05-14T22:05:00.680Z,8.07
2023-05-14T22:07:28.576Z,7.90
2023-05-14T22:09:56.374Z,8.85
2023-05-14T22:12:26.609Z,7.95
2023-05-14T22:14:54.377Z,7.70
2023-05-14T22:17:22.698Z,9.65
2023-05-14T22:19:52.001Z,7.65
2023-05-14T22:22:19.751Z,8.35
2023-05-14T22:24:47.921Z,8.77
2023-05-14T22:27:15.737Z,8.60
2023-05-14T22:29:44.845Z,7.80
2023-05-14T22:32:13.627Z,7.22
2023-05-14T22:34:41.521Z,8.32
2023-05-14T22:37:11.035Z,8.50
2023-05-14T22:39:39.293Z,8.60
2023-05-14T22:42:07.182Z,8.75
2023-05-14T22:44:37.045Z,8.82
2023-05-14T22:47:06.388Z,7.88
2023-05-14T22:49:34.998Z,9.00
2023-05-14T22:52:03.169Z,8.85
2023-05-14T22:54:31.380Z,7.82
2023-05-14T22:56:59.593Z,8.25
2023-05-14T22:59:27.409Z,7.95
2023-05-14T23:01:55.110Z,8.07
2023-05-14T23:04:25.212Z,8.07
2023-05-14T23:06:52.985Z,7.70
2023-05-14T23:09:21.136Z,7.72
2023-05-14T23:11:49.790Z,9.00
2023-05-14T23:14:18.002Z,7.47
2023-05-14T23:16:46.188Z,8.38
2023-05-14T23:19:15.181Z,7.90
2023-05-14T23:21:44.386Z,7.15
2023-05-14T23:24:12.723Z,8.25
2023-05-14T23:26:42.443Z,7.88
2023-05-14T23:29:10.272Z,7.63
2023-05-14T23:31:39.199Z,7.90
2023-05-14T23:34:06.975Z,9.50
2023-05-14T23:36:34.880Z,8.20
2023-05-14T23:39:04.588Z,8.02
2023-05-14T23:41:32.718Z,8.00
2023-05-14T23:44:00.443Z,8.05
2023-05-14T23:46:29.365Z,8.07
2023-05-14T23:48:57.428Z,8.32
2023-05-14T23:51:25.488Z,8.82
2023-05-14T23:53:58.826Z,8.25
2023-05-14T23:56:29.149Z,8.75
2023-05-14T23:58:57.977Z,9.55
